Black Hawk, Mississippi
Current Conditions -  °F | °C
As of 10:53 PM on Tuesday 21 Oct 2014 (Local Time) from KGWO Reporting Station
Clear Clear  
Wind Chill: 57°   Ceiling: Unl
Heat Index: 57°   Visibility: 10mi
Dew Point: 53°   Wind: 3mph
Humidity: 87%   Direction: 340°NNW
Pressure: 30.09"   Gusts: NA
Location:  33.3683°N, 89.9772°W
Report Text: KGWO 220353Z AUTO 34003KT 10SM CLR 14/12 A3009 RMK AO2 SLP186 T01390117 TSNO
Loading
Personal Weather Stations






























Interactive Weather Map
Tropical Storm Tracking
New forecast layout! Learn more

10-Day Weather Forecast

Advertisements
Track Severe Weather on mobile